Página principal
METAR-TAF:

METAR-TAF

Aeroportos :

Ouargla, Argélia

latitude: 31-55N, longitude: 005-24E, altura: 141 m

Observação actual do tempo

O boletim foi feito há 25 minutos, às 17:00 UTC
Vento 13 kt de sul
Temperatura 48°C
Pressão 1007 hPa
Visibilidade 10 km ou mais
sem nuvens abaixo de 1500 metros e sem cumulonimbus

METAR: DAUU 231700Z 18013KT CAVOK 48/// Q1007

Hora: 18:25 (17:25 UTC)

Previsão

O boletim foi feito há 3 horas e 25 minutos, às 14:00 UTC
Previsão válida de 23 às 15 UTC a 23 às 24 UTC
Vento 14 kt de su-sudoeste
Visibilidade 10 km ou mais
sem nuvens abaixo de 1500 metros e sem cumulonimbus
Tornando-se
de 23 às 19 UTC a 23 às 22 UTC
Vento 8 kt de es-nordeste

TAF: DAUU 231400Z 2315/2324 20014KT CAVOK BECMG 2319/2322 06008KT

Observações e previsões do tempo de mais de 4000 aeroportos (mensagens METAR e TAF).

As estações disponíveis são os pontos amarelos e vermelhos sobre o mapa.

Mova o rato sobre o mapa para ver o nome da estação.

Depois clique no ponto para visualizar as observações e previsões meteorológicas.

Para alterar o mapa : clique nos botões verdes com uma cruz preta para aumentar o zoom; no botão verde com uma pitada de zoom; ou nas setas verdes para mapas adjacentes.


METAR-TAF: